Главная страница
METAR-TAF:

METAR-TAF

Аэропорты :

Урмия, Иран

широта: 37-32N, долгота: 045-05E, высота над уровнем моря: 1297 м

Текущие метеонаблюдения

Эта сводка был подготовлена 54 минут назад, в 22:00 UTC
Штиль
Температура 12°C
Влажность 54%
Давление 1019 hPa
Видимость 10 км и более
Нет облачности ниже 1500 м, и нет кучево-дождевой облачности

METAR: OITR 182200Z 00000KT CAVOK 12/03 Q1019

Время: 03:24 (22:54 UTC)

Прогноз

Эта сводка был подготовлена 5 часа и 4 минут назад, в 17:50 UTC
Прогноз действительный с 18-го 18 UTC до 19-го 24 UTC
Ветер 8 Узел от западный
Видимость: 8000 м
Отдельные облака на высоте 4000 фута

TAF: OITR 181750Z 1818/1924 27008KT 8000 SCT040 ST090

Метеонаблюдения и прогнозы для более 4000 аэропортов (сводки METAR и TAF).

Имеющиеся станции представлены на карте желтыми и красными точками.

Чтобы увидеть название станции, наведите на нее мышь.

Затем щелкните, чтобы увидеть метеонаблюдения и метеопрогнозы.

Управление картой: чтобы увеличить масштаб, щелкните зеленые кнопки с черным крестиком; чтобы уменьшить масштаб, щелкните зеленую кнопку с тире; для просмотра соседних карт щелкайте зеленые стрелки.


METAR-TAF: